KBKL/BKL METAR and TAF weather

Enter ICAO airport designator
Station Type Date Time Source
KBKL METAR 2020/10/29 15:53 UTC NOAA

KBKL 291553Z 10004KT 8SM -RA OVC060 08/06 A2974 RMK AO2 SLP071 P0007 T00830056


Station Type Date Time Source
KBKL Decoded METAR 2020/10/29 15:53 UTC NOAA

CLEVELAND BURKE LAKEFRONT, OH, United States (KBKL) 41-32N 81-40W 184M
Oct 29, 2020 - 11:53 AM EDT / 2020.10.29 1553 UTC
Wind: from the E (100 degrees) at 5 MPH (4 KT):0
Visibility: 8 mile(s):0
Sky conditions: overcast
Weather: light rain
Precipitation last hour: 0.07 inches
Temperature: 46.9 F (8.3 C)
Dew Point: 42.1 F (5.6 C)
Relative Humidity: 83%
Pressure (altimeter): 29.74 in. Hg (1007 hPa)
ob: KBKL 291553Z 10004KT 8SM -RA OVC060 08/06 A2974 RMK AO2 SLP071 P0007 T00830056
cycle: 16

Station Type Date Time Source
KBKL TAF UTC NOAA

Error!

Example: see airport list